createdAt,value
2023-01-17T00:01:06.938Z,69.09
2023-01-17T00:03:56.746Z,69.56
2023-01-17T00:06:43.991Z,69.12
2023-01-17T00:09:37.499Z,69.63
2023-01-17T00:12:08.196Z,70.10
2023-01-17T00:14:38.873Z,69.00
2023-01-17T00:17:07.719Z,69.80
2023-01-17T00:19:54.221Z,69.90
2023-01-17T00:22:45.169Z,69.28
2023-01-17T00:25:32.477Z,69.92
2023-01-17T00:28:00.824Z,69.48
2023-01-17T00:30:30.482Z,70.48
2023-01-17T00:32:58.238Z,69.75
2023-01-17T00:35:28.126Z,70.24
2023-01-17T00:38:04.016Z,70.07
2023-01-17T00:40:32.500Z,70.22
2023-01-17T00:43:19.168Z,70.80
2023-01-17T00:46:07.672Z,71.24
2023-01-17T00:48:55.067Z,71.25
2023-01-17T00:51:41.999Z,71.11
2023-01-17T00:54:28.711Z,71.14
2023-01-17T00:57:15.732Z,71.35
2023-01-17T01:00:04.791Z,72.29
2023-01-17T01:02:56.729Z,72.31
2023-01-17T01:05:43.640Z,72.52
2023-01-17T01:08:41.521Z,72.51
2023-01-17T01:11:32.830Z,72.97
2023-01-17T01:14:19.750Z,73.50
2023-01-17T01:17:06.739Z,73.25
2023-01-17T01:19:55.725Z,74.02
2023-01-17T01:22:42.549Z,73.98
2023-01-17T01:25:29.350Z,74.39
2023-01-17T01:28:22.145Z,74.43
2023-01-17T01:31:08.646Z,74.22
2023-01-17T01:33:37.804Z,74.45
2023-01-17T01:36:10.343Z,74.53
2023-01-17T01:38:39.984Z,74.81
2023-01-17T01:41:09.321Z,74.50
2023-01-17T01:43:49.969Z,75.21
2023-01-17T01:46:22.447Z,74.77
2023-01-17T01:48:55.322Z,75.02
2023-01-17T01:51:30.147Z,75.17
2023-01-17T01:54:08.430Z,74.86
2023-01-17T01:56:38.274Z,75.82
2023-01-17T01:59:11.478Z,74.87
2023-01-17T02:01:40.759Z,75.36
2023-01-17T02:04:11.114Z,74.98
2023-01-17T02:06:43.785Z,74.98
2023-01-17T02:09:14.806Z,74.90
2023-01-17T02:11:44.434Z,75.39
2023-01-17T02:14:17.224Z,74.74
2023-01-17T02:16:55.008Z,75.63
2023-01-17T02:20:03.374Z,74.98
2023-01-17T02:22:59.417Z,74.75
2023-01-17T02:25:49.607Z,74.33
2023-01-17T02:32:54.699Z,74.28
2023-01-17T02:35:31.290Z,73.96
2023-01-17T02:38:04.569Z,74.26
2023-01-17T02:40:37.447Z,73.87
2023-01-17T02:43:09.840Z,73.75
2023-01-17T02:45:39.485Z,73.59
2023-01-17T02:48:15.405Z,73.91
2023-01-17T02:51:10.317Z,73.49
2023-01-17T02:53:51.689Z,73.39
2023-01-17T02:56:28.832Z,73.57
2023-01-17T02:59:09.709Z,73.55
2023-01-17T03:01:45.534Z,73.80
2023-01-17T03:04:20.029Z,74.16
2023-01-17T03:06:52.311Z,74.43
2023-01-17T03:09:24.161Z,74.58
2023-01-17T03:11:54.081Z,74.51
2023-01-17T03:14:32.903Z,75.03
2023-01-17T03:17:02.160Z,75.33
2023-01-17T03:19:32.884Z,75.99
2023-01-17T03:22:02.649Z,75.98
2023-01-17T03:24:31.644Z,76.04
2023-01-17T03:27:00.822Z,76.15
2023-01-17T03:29:30.845Z,76.12
2023-01-17T03:31:59.857Z,75.88
2023-01-17T03:34:29.763Z,75.96
2023-01-17T03:37:05.508Z,75.93
2023-01-17T03:39:34.721Z,76.15
2023-01-17T03:42:04.328Z,75.85
2023-01-17T03:44:34.357Z,75.68
2023-01-17T03:47:03.446Z,76.13
2023-01-17T03:49:32.849Z,76.03
2023-01-17T03:52:09.419Z,76.25
2023-01-17T03:54:38.723Z,75.86
2023-01-17T03:57:08.927Z,75.92
2023-01-17T03:59:38.049Z,76.19
2023-01-17T04:02:07.285Z,76.36
2023-01-17T04:04:38.791Z,76.58
2023-01-17T04:07:09.680Z,76.95
2023-01-17T04:09:41.287Z,77.32
2023-01-17T04:12:10.076Z,77.51
2023-01-17T04:14:41.318Z,77.42
2023-01-17T04:17:12.061Z,78.30
2023-01-17T04:19:42.388Z,78.21
2023-01-17T04:22:13.121Z,77.94
2023-01-17T04:24:42.639Z,78.11
2023-01-17T04:27:17.967Z,78.36
2023-01-17T04:29:47.084Z,77.68
2023-01-17T04:32:16.365Z,77.68
2023-01-17T04:34:46.383Z,78.59
2023-01-17T04:37:16.912Z,78.93
2023-01-17T04:39:46.217Z,78.85
2023-01-17T04:42:18.589Z,79.35
2023-01-17T04:44:47.531Z,79.66
2023-01-17T04:47:19.545Z,79.74
2023-01-17T04:49:48.786Z,79.73
2023-01-17T04:52:20.825Z,79.78
2023-01-17T04:54:50.325Z,79.78
2023-01-17T04:57:20.231Z,79.93
2023-01-17T04:59:54.669Z,80.02
2023-01-17T05:02:33.365Z,79.92
2023-01-17T05:05:02.523Z,79.77
2023-01-17T05:07:35.654Z,79.57
2023-01-17T05:10:05.279Z,79.71
2023-01-17T05:12:37.041Z,79.46
2023-01-17T05:15:06.950Z,79.63
2023-01-17T05:17:35.841Z,79.65
2023-01-17T05:20:10.468Z,79.53
2023-01-17T05:22:41.831Z,79.30
2023-01-17T05:25:25.761Z,79.23
2023-01-17T05:28:01.617Z,79.02
2023-01-17T05:30:31.830Z,78.87
2023-01-17T05:33:01.655Z,78.66
2023-01-17T05:35:33.724Z,78.41
2023-01-17T05:38:05.006Z,78.27
2023-01-17T05:40:54.248Z,78.79
2023-01-17T05:43:23.744Z,78.88
2023-01-17T05:45:53.491Z,78.59
2023-01-17T05:48:22.738Z,78.91
2023-01-17T05:50:54.139Z,79.38
2023-01-17T05:53:30.771Z,78.91
2023-01-17T05:56:03.154Z,79.00
2023-01-17T05:58:35.019Z,79.23
2023-01-17T06:01:10.233Z,78.69
2023-01-17T06:03:39.355Z,78.03
2023-01-17T06:06:11.111Z,78.54
2023-01-17T06:08:45.543Z,78.66
2023-01-17T06:11:23.857Z,78.10
2023-01-17T06:13:53.218Z,77.79
2023-01-17T06:16:22.444Z,78.11
2023-01-17T06:18:51.958Z,78.43
2023-01-17T06:21:21.666Z,78.39
2023-01-17T06:24:03.934Z,78.89
2023-01-17T06:26:33.782Z,79.55
2023-01-17T06:29:05.848Z,79.34
2023-01-17T06:31:35.322Z,79.15
2023-01-17T06:34:06.625Z,79.10
2023-01-17T06:36:35.812Z,79.60
2023-01-17T06:39:06.474Z,79.55
2023-01-17T06:41:35.570Z,79.75
2023-01-17T06:44:05.328Z,79.18
2023-01-17T06:46:36.011Z,79.17
2023-01-17T06:49:05.276Z,79.12
2023-01-17T06:51:34.520Z,80.00
2023-01-17T06:54:03.574Z,79.94
2023-01-17T06:56:36.255Z,80.51
2023-01-17T06:59:05.564Z,80.33
2023-01-17T07:01:34.902Z,79.32
2023-01-17T07:04:05.633Z,78.80
2023-01-17T07:06:37.278Z,78.80
2023-01-17T07:09:07.994Z,78.37
2023-01-17T07:11:41.306Z,79.70
2023-01-17T07:14:14.737Z,79.65
2023-01-17T07:16:46.298Z,80.09
2023-01-17T07:19:18.304Z,80.49
2023-01-17T07:21:47.810Z,79.87
2023-01-17T07:24:16.986Z,80.21
2023-01-17T07:26:49.888Z,80.66
2023-01-17T07:29:22.059Z,80.80
2023-01-17T07:31:51.255Z,80.72
2023-01-17T07:34:20.631Z,80.56
2023-01-17T07:36:50.242Z,80.59
2023-01-17T07:39:22.235Z,80.05
2023-01-17T07:41:52.976Z,79.47
2023-01-17T07:44:24.832Z,79.28
2023-01-17T07:46:55.158Z,79.80
2023-01-17T07:49:24.661Z,80.28
2023-01-17T07:51:55.392Z,81.14
2023-01-17T07:54:24.396Z,80.81
2023-01-17T07:56:55.424Z,80.86
2023-01-17T07:59:24.695Z,80.56
2023-01-17T08:01:54.390Z,80.21
2023-01-17T08:04:27.018Z,80.62
2023-01-17T08:06:56.504Z,80.53
2023-01-17T08:09:28.290Z,80.84
2023-01-17T08:12:01.785Z,81.13
2023-01-17T08:14:31.187Z,81.42
2023-01-17T08:17:05.711Z,81.61
2023-01-17T08:19:35.427Z,81.68
2023-01-17T08:22:04.927Z,81.64
2023-01-17T08:24:37.817Z,81.41
2023-01-17T08:27:10.861Z,81.41
2023-01-17T08:32:30.416Z,80.84
2023-01-17T08:35:15.757Z,81.31
2023-01-17T08:37:45.485Z,80.79
2023-01-17T08:40:18.279Z,81.15
2023-01-17T08:42:57.011Z,80.93
2023-01-17T08:45:26.406Z,80.18
2023-01-17T08:47:55.798Z,80.62
2023-01-17T08:50:26.334Z,79.70
2023-01-17T08:53:01.243Z,79.44
2023-01-17T08:55:31.075Z,78.96
2023-01-17T08:58:02.531Z,79.29
2023-01-17T09:00:32.832Z,78.85
2023-01-17T09:03:02.665Z,78.73
2023-01-17T09:05:32.083Z,78.34
2023-01-17T09:08:01.166Z,78.40
2023-01-17T09:10:33.763Z,77.53
2023-01-17T09:13:06.841Z,77.56
2023-01-17T09:15:36.653Z,77.11
2023-01-17T09:18:09.235Z,77.15
2023-01-17T09:20:39.551Z,77.78
2023-01-17T09:23:10.083Z,76.95
2023-01-17T09:25:39.998Z,77.39
2023-01-17T09:28:11.244Z,76.65
2023-01-17T09:30:43.858Z,75.07
2023-01-17T09:33:13.436Z,74.88
2023-01-17T09:35:42.834Z,76.03
2023-01-17T09:38:12.239Z,75.87
2023-01-17T09:40:46.251Z,75.08
2023-01-17T09:43:23.520Z,75.94
2023-01-17T09:45:53.192Z,75.30
2023-01-17T09:48:27.552Z,74.82
2023-01-17T09:51:00.866Z,75.30
2023-01-17T09:53:35.366Z,75.10
2023-01-17T09:56:07.455Z,74.74
2023-01-17T09:58:42.622Z,75.13
2023-01-17T10:01:18.897Z,74.93
2023-01-17T10:04:11.750Z,74.83
2023-01-17T10:06:59.862Z,74.26
2023-01-17T10:09:44.212Z,74.08
2023-01-17T10:12:20.576Z,73.70
2023-01-17T10:15:07.475Z,73.32
2023-01-17T10:17:44.778Z,72.95
2023-01-17T10:20:21.249Z,72.47
2023-01-17T10:23:04.199Z,72.12
2023-01-17T10:25:45.039Z,71.69
2023-01-17T10:28:17.522Z,71.76
2023-01-17T10:30:51.315Z,69.05
2023-01-17T10:33:22.769Z,69.71
2023-01-17T10:35:57.403Z,69.80
2023-01-17T10:38:31.313Z,70.61
2023-01-17T10:41:08.267Z,70.13
2023-01-17T10:43:49.576Z,69.41
2023-01-17T10:46:23.603Z,69.25
2023-01-17T10:48:54.220Z,66.78
2023-01-17T10:52:00.087Z,69.56
2023-01-17T10:54:40.147Z,69.81
2023-01-17T10:57:15.253Z,68.92
2023-01-17T10:59:44.679Z,67.82
2023-01-17T11:02:22.344Z,68.62
2023-01-17T11:04:54.683Z,67.62
2023-01-17T11:07:27.428Z,64.76
2023-01-17T11:09:57.855Z,65.73
2023-01-17T11:12:30.033Z,65.08
2023-01-17T11:15:07.724Z,66.08
2023-01-17T11:17:39.705Z,66.53
2023-01-17T11:20:21.174Z,66.70
2023-01-17T11:23:05.424Z,66.54
2023-01-17T11:25:35.322Z,66.51
2023-01-17T11:28:07.412Z,65.95
2023-01-17T11:30:36.715Z,65.09
2023-01-17T11:33:09.013Z,66.59
2023-01-17T11:35:39.618Z,65.74
2023-01-17T11:38:14.467Z,64.61
2023-01-17T11:40:44.669Z,66.58
2023-01-17T11:43:23.003Z,65.14
2023-01-17T11:46:18.091Z,65.38
2023-01-17T11:48:53.488Z,64.35
2023-01-17T11:51:28.677Z,63.65
2023-01-17T11:54:10.401Z,63.52
2023-01-17T11:56:40.872Z,64.50
2023-01-17T11:59:18.960Z,65.07
2023-01-17T12:01:53.217Z,65.43
2023-01-17T12:04:26.305Z,64.45
2023-01-17T12:07:07.779Z,65.74
2023-01-17T12:09:41.496Z,65.06
2023-01-17T12:12:35.476Z,63.05
2023-01-17T12:15:12.870Z,64.34
2023-01-17T12:17:58.153Z,62.97
2023-01-17T12:20:35.745Z,63.51
2023-01-17T12:23:33.211Z,63.54
2023-01-17T12:26:19.642Z,62.03
2023-01-17T12:29:26.160Z,63.18
2023-01-17T12:32:03.477Z,63.89
2023-01-17T12:34:38.406Z,63.20
2023-01-17T12:37:17.335Z,62.07
2023-01-17T12:39:53.389Z,62.32
2023-01-17T12:42:25.842Z,62.70
2023-01-17T12:44:59.026Z,62.37
2023-01-17T12:47:27.958Z,63.75
2023-01-17T12:50:04.624Z,64.16
2023-01-17T12:52:49.056Z,62.68
2023-01-17T12:55:25.544Z,63.39
2023-01-17T12:57:58.845Z,63.27
2023-01-17T13:00:29.899Z,64.06
2023-01-17T13:03:06.379Z,63.57
2023-01-17T13:05:38.619Z,64.82
2023-01-17T13:08:36.873Z,64.82
2023-01-17T13:11:10.525Z,64.25
2023-01-17T13:13:43.570Z,64.13
2023-01-17T13:16:16.109Z,63.38
2023-01-17T13:18:47.715Z,63.49
2023-01-17T13:21:31.466Z,63.84
2023-01-17T13:24:16.827Z,65.12
2023-01-17T13:27:12.355Z,65.09
2023-01-17T13:29:53.613Z,64.57
2023-01-17T13:32:51.834Z,65.56
2023-01-17T13:35:24.308Z,63.94
2023-01-17T13:38:25.565Z,64.80
2023-01-17T13:40:58.652Z,64.92
2023-01-17T13:43:30.193Z,63.78
2023-01-17T13:46:03.308Z,64.57
2023-01-17T13:48:34.846Z,63.90
2023-01-17T13:51:04.555Z,65.35
2023-01-17T13:53:59.876Z,64.96
2023-01-17T13:56:34.373Z,64.89
2023-01-17T13:59:25.713Z,64.11
2023-01-17T14:01:55.307Z,64.43
2023-01-17T14:04:25.775Z,64.82
2023-01-17T14:06:57.161Z,64.39
2023-01-17T14:09:28.314Z,65.70
2023-01-17T14:12:02.020Z,65.95
2023-01-17T14:14:47.624Z,65.58
2023-01-17T14:17:48.470Z,65.89
2023-01-17T14:20:44.704Z,66.41
2023-01-17T14:23:34.488Z,66.51
2023-01-17T14:26:17.539Z,66.66
2023-01-17T14:28:48.144Z,66.35
2023-01-17T14:31:17.153Z,66.49
2023-01-17T14:33:46.436Z,66.38
2023-01-17T14:36:22.395Z,65.49
2023-01-17T14:38:51.287Z,64.49
2023-01-17T14:41:23.453Z,65.33
2023-01-17T14:43:54.292Z,65.46
2023-01-17T14:46:26.253Z,65.28
2023-01-17T14:49:01.857Z,65.13
2023-01-17T14:51:35.323Z,64.82
2023-01-17T14:54:06.760Z,66.45
2023-01-17T14:56:35.993Z,65.06
2023-01-17T14:59:17.431Z,66.73
2023-01-17T15:02:06.330Z,66.53
2023-01-17T15:04:39.749Z,66.33
2023-01-17T15:07:14.021Z,67.06
2023-01-17T15:09:44.652Z,67.13
2023-01-17T15:12:15.089Z,67.12
2023-01-17T15:14:47.516Z,68.48
2023-01-17T15:17:20.708Z,68.13
2023-01-17T15:19:54.248Z,68.08
2023-01-17T15:22:23.768Z,68.44
2023-01-17T15:24:53.336Z,68.78
2023-01-17T15:27:22.503Z,68.55
2023-01-17T15:29:54.292Z,68.46
2023-01-17T15:32:28.118Z,68.41
2023-01-17T15:35:08.156Z,68.68
2023-01-17T15:37:40.002Z,68.95
2023-01-17T15:40:19.000Z,69.01
2023-01-17T15:42:49.406Z,69.25
2023-01-17T15:45:23.937Z,68.45
2023-01-17T15:47:52.886Z,69.49
2023-01-17T15:50:30.421Z,68.73
2023-01-17T15:53:02.271Z,68.51
2023-01-17T15:55:33.634Z,68.68
2023-01-17T15:58:03.437Z,69.18
2023-01-17T16:00:41.999Z,69.43
2023-01-17T16:03:24.409Z,69.89
2023-01-17T16:05:54.795Z,70.17
2023-01-17T16:08:39.981Z,69.68
2023-01-17T16:11:11.829Z,69.53
2023-01-17T16:13:43.637Z,69.33
2023-01-17T16:16:16.793Z,70.12
2023-01-17T16:18:46.691Z,69.50
2023-01-17T16:21:21.363Z,70.29
2023-01-17T16:23:50.583Z,71.03
2023-01-17T16:26:19.512Z,70.20
2023-01-17T16:28:49.121Z,69.89
2023-01-17T16:31:19.942Z,71.44
2023-01-17T16:33:51.315Z,71.05
2023-01-17T16:36:23.187Z,71.01
2023-01-17T16:38:53.440Z,70.67
2023-01-17T16:41:22.667Z,70.65
2023-01-17T16:43:59.675Z,71.59
2023-01-17T16:46:32.808Z,71.25
2023-01-17T16:49:02.320Z,71.21
2023-01-17T16:51:31.756Z,71.68
2023-01-17T16:54:03.843Z,71.11
2023-01-17T16:56:32.974Z,71.06
2023-01-17T16:59:01.897Z,71.66
2023-01-17T17:01:32.670Z,72.01
2023-01-17T17:04:03.917Z,71.75
2023-01-17T17:06:33.075Z,71.83
2023-01-17T17:09:12.244Z,71.32
2023-01-17T17:11:43.293Z,71.73
2023-01-17T17:14:12.385Z,71.49
2023-01-17T17:16:43.783Z,71.31
2023-01-17T17:19:12.669Z,71.75
2023-01-17T17:21:41.925Z,71.29
2023-01-17T17:24:14.055Z,71.95
2023-01-17T17:26:43.747Z,71.87
2023-01-17T17:29:14.236Z,72.10
2023-01-17T17:31:44.980Z,71.43
2023-01-17T17:34:17.649Z,71.13
2023-01-17T17:36:47.566Z,71.81
2023-01-17T17:39:17.191Z,71.70
2023-01-17T17:41:46.886Z,72.24
2023-01-17T17:44:16.655Z,71.58
2023-01-17T17:46:49.386Z,71.81
2023-01-17T17:49:18.889Z,71.85
2023-01-17T17:51:48.250Z,72.55
2023-01-17T17:54:19.167Z,71.92
2023-01-17T17:56:49.470Z,70.79
2023-01-17T17:59:22.039Z,71.49
2023-01-17T18:02:17.495Z,71.49
2023-01-17T18:04:47.329Z,71.24
2023-01-17T18:07:16.408Z,71.48
2023-01-17T18:09:45.761Z,71.41
2023-01-17T18:12:14.960Z,71.45
2023-01-17T18:14:44.032Z,71.11
2023-01-17T18:17:14.180Z,71.80
2023-01-17T18:19:46.344Z,71.08
2023-01-17T18:22:17.773Z,70.95
2023-01-17T18:24:47.914Z,72.01
2023-01-17T18:27:17.207Z,70.73
2023-01-17T18:29:46.215Z,71.25
2023-01-17T18:32:15.203Z,71.02
2023-01-17T18:34:46.041Z,71.57
2023-01-17T18:37:15.654Z,70.62
2023-01-17T18:39:48.212Z,72.25
2023-01-17T18:42:17.326Z,71.81
2023-01-17T18:44:46.839Z,71.84
2023-01-17T18:47:16.010Z,70.56
2023-01-17T18:49:46.259Z,70.40
2023-01-17T18:52:15.230Z,70.90
2023-01-17T18:54:44.352Z,71.05
2023-01-17T18:57:21.019Z,71.56
2023-01-17T18:59:50.117Z,70.46
2023-01-17T19:02:20.151Z,70.70
2023-01-17T19:04:50.874Z,71.30
2023-01-17T19:07:21.412Z,71.21
2023-01-17T19:09:50.493Z,72.32
2023-01-17T19:12:20.804Z,71.96
2023-01-17T19:14:51.760Z,72.36
2023-01-17T19:17:20.869Z,72.57
2023-01-17T19:19:51.356Z,71.27
2023-01-17T19:22:21.900Z,71.92
2023-01-17T19:24:53.967Z,72.29
2023-01-17T19:27:23.284Z,71.11
2023-01-17T19:29:52.387Z,72.32
2023-01-17T19:32:21.173Z,71.93
2023-01-17T19:35:06.622Z,71.41
2023-01-17T19:37:35.852Z,73.16
2023-01-17T19:40:05.255Z,74.18
2023-01-17T19:42:34.117Z,74.03
2023-01-17T19:45:03.144Z,75.18
2023-01-17T19:47:32.348Z,75.16
2023-01-17T19:50:08.509Z,75.35
2023-01-17T19:52:39.241Z,76.13
2023-01-17T19:55:09.988Z,76.75
2023-01-17T19:57:40.917Z,76.38
2023-01-17T20:00:13.210Z,77.62
2023-01-17T20:02:42.298Z,76.98
2023-01-17T20:05:11.515Z,77.96
2023-01-17T20:07:42.302Z,77.68
2023-01-17T20:10:12.443Z,77.70
2023-01-17T20:12:44.892Z,78.65
2023-01-17T20:15:14.011Z,78.99
2023-01-17T20:17:42.984Z,79.73
2023-01-17T20:20:13.826Z,78.94
2023-01-17T20:22:45.086Z,79.82
2023-01-17T20:25:15.005Z,80.07
2023-01-17T20:27:45.959Z,80.46
2023-01-17T20:30:20.547Z,80.20
2023-01-17T20:33:17.929Z,80.90
2023-01-17T20:35:51.585Z,80.38
2023-01-17T20:38:43.687Z,81.58
2023-01-17T20:41:14.121Z,81.51
2023-01-17T20:43:43.502Z,81.59
2023-01-17T20:46:13.359Z,82.90
2023-01-17T20:48:46.921Z,82.91
2023-01-17T20:51:17.456Z,83.00
2023-01-17T20:53:48.670Z,82.61
2023-01-17T20:56:27.925Z,83.17
2023-01-17T20:58:58.253Z,83.13
2023-01-17T21:01:27.753Z,82.90
2023-01-17T21:03:57.146Z,82.72
2023-01-17T21:06:26.444Z,82.90
2023-01-17T21:09:01.098Z,82.92
2023-01-17T21:11:30.907Z,83.09
2023-01-17T21:14:00.129Z,82.28
2023-01-17T21:16:29.844Z,82.69
2023-01-17T21:18:59.011Z,82.37
2023-01-17T21:21:29.086Z,83.06
2023-01-17T21:24:00.602Z,83.22
2023-01-17T21:26:38.946Z,82.91
2023-01-17T21:29:08.104Z,83.36
2023-01-17T21:31:38.933Z,83.52
2023-01-17T21:34:10.494Z,83.44
2023-01-17T21:36:40.889Z,83.11
2023-01-17T21:39:13.967Z,82.84
2023-01-17T21:41:47.403Z,83.19
2023-01-17T21:44:19.529Z,82.46
2023-01-17T21:46:54.367Z,82.99
2023-01-17T21:49:25.762Z,83.08
2023-01-17T21:52:15.435Z,83.12
2023-01-17T21:55:03.577Z,83.35
2023-01-17T21:57:52.843Z,82.96
2023-01-17T22:00:22.971Z,83.36
2023-01-17T22:02:52.099Z,82.56
2023-01-17T22:05:22.073Z,83.40
2023-01-17T22:08:15.452Z,83.96
2023-01-17T22:10:46.187Z,83.65
2023-01-17T22:13:15.978Z,83.90
2023-01-17T22:15:45.824Z,84.13
2023-01-17T22:18:15.518Z,84.03
2023-01-17T22:20:44.526Z,84.03
2023-01-17T22:23:17.912Z,83.75
2023-01-17T22:25:48.444Z,83.56
2023-01-17T22:28:17.640Z,83.51
2023-01-17T22:30:46.890Z,83.59
2023-01-17T22:33:17.468Z,83.95
2023-01-17T22:35:49.438Z,84.28
2023-01-17T22:38:18.515Z,84.25
2023-01-17T22:40:48.965Z,84.78
2023-01-17T22:43:18.361Z,84.10
2023-01-17T22:45:50.020Z,84.06
2023-01-17T22:48:20.651Z,84.33
2023-01-17T22:50:49.444Z,84.42
2023-01-17T22:53:18.741Z,84.14
2023-01-17T22:55:48.965Z,84.03
2023-01-17T22:58:19.188Z,83.82
2023-01-17T23:00:49.838Z,83.49
2023-01-17T23:03:21.199Z,83.60
2023-01-17T23:05:50.581Z,84.18
2023-01-17T23:08:21.311Z,84.22
2023-01-17T23:11:09.042Z,84.61
2023-01-17T23:13:39.064Z,84.60
2023-01-17T23:16:26.181Z,83.59
2023-01-17T23:19:14.937Z,83.96
2023-01-17T23:22:01.825Z,83.52
2023-01-17T23:24:34.114Z,84.22
2023-01-17T23:27:25.547Z,84.12
2023-01-17T23:29:54.544Z,84.18
2023-01-17T23:32:23.838Z,84.59
2023-01-17T23:34:52.834Z,84.31
2023-01-17T23:37:22.023Z,84.31
2023-01-17T23:39:53.074Z,83.95
2023-01-17T23:42:43.895Z,84.37
2023-01-17T23:45:13.282Z,84.77
2023-01-17T23:47:52.674Z,84.49
2023-01-17T23:50:22.176Z,84.53
2023-01-17T23:52:51.221Z,84.09
2023-01-17T23:55:20.227Z,84.50
2023-01-17T23:57:53.101Z,84.87
